createdAt,value
2023-04-25T00:01:27.593Z,65.86
2023-04-25T00:03:58.443Z,65.85
2023-04-25T00:06:29.908Z,65.85
2023-04-25T00:09:00.359Z,65.87
2023-04-25T00:11:30.765Z,65.92
2023-04-25T00:14:01.086Z,65.65
2023-04-25T00:16:32.495Z,65.90
2023-04-25T00:19:03.235Z,65.59
2023-04-25T00:21:35.011Z,65.60
2023-04-25T00:24:05.637Z,65.55
2023-04-25T00:26:36.941Z,65.73
2023-04-25T00:29:07.378Z,65.62
2023-04-25T00:31:37.690Z,65.67
2023-04-25T00:34:08.177Z,65.34
2023-04-25T00:36:40.281Z,65.18
2023-04-25T00:39:10.569Z,65.05
2023-04-25T00:41:41.138Z,65.12
2023-04-25T00:44:16.925Z,64.82
2023-04-25T00:46:48.184Z,64.94
2023-04-25T00:49:20.275Z,65.07
2023-04-25T00:51:50.679Z,64.91
2023-04-25T00:54:20.947Z,64.79
2023-04-25T00:56:51.269Z,65.01
2023-04-25T00:59:23.652Z,65.07
2023-04-25T01:01:54.355Z,64.94
2023-04-25T01:04:25.495Z,65.05
2023-04-25T01:06:55.460Z,64.69
2023-04-25T01:09:26.924Z,64.95
2023-04-25T01:11:57.362Z,64.58
2023-04-25T01:14:27.780Z,64.70
2023-04-25T01:16:58.352Z,64.86
2023-04-25T01:19:29.362Z,64.93
2023-04-25T01:22:01.041Z,65.01
2023-04-25T01:24:32.927Z,65.14
2023-04-25T01:27:05.605Z,65.30
2023-04-25T01:29:36.945Z,65.41
2023-04-25T01:32:09.267Z,65.42
2023-04-25T01:34:39.711Z,65.33
2023-04-25T01:37:09.826Z,65.35
2023-04-25T01:39:40.114Z,65.08
2023-04-25T01:42:10.734Z,65.19
2023-04-25T01:44:41.576Z,65.27
2023-04-25T01:47:12.026Z,65.08
2023-04-25T01:49:42.409Z,65.44
2023-04-25T01:52:12.713Z,64.90
2023-04-25T01:54:47.406Z,65.23
2023-04-25T01:57:19.531Z,64.80
2023-04-25T01:59:50.705Z,64.76
2023-04-25T02:02:41.324Z,64.52
2023-04-25T02:05:24.256Z,64.66
2023-04-25T02:07:55.488Z,64.49
2023-04-25T02:10:28.670Z,64.62
2023-04-25T02:13:10.800Z,64.98
2023-04-25T02:16:07.223Z,65.25
2023-04-25T02:18:37.703Z,65.28
2023-04-25T02:21:10.082Z,65.03
2023-04-25T02:23:40.546Z,65.48
2023-04-25T02:26:10.656Z,65.17
2023-04-25T02:28:40.960Z,64.45
2023-04-25T02:31:11.285Z,64.86
2023-04-25T02:33:42.250Z,64.58
2023-04-25T02:36:12.604Z,64.64
2023-04-25T02:38:43.121Z,64.29
2023-04-25T02:41:13.543Z,64.06
2023-04-25T02:43:43.840Z,64.63
2023-04-25T02:46:14.667Z,64.39
2023-04-25T02:48:45.002Z,64.42
2023-04-25T02:51:15.907Z,64.36
2023-04-25T02:53:48.220Z,64.38
2023-04-25T02:56:18.619Z,64.50
2023-04-25T02:58:49.002Z,64.30
2023-04-25T03:01:19.405Z,64.66
2023-04-25T03:03:50.289Z,64.04
2023-04-25T03:06:20.815Z,64.62
2023-04-25T03:08:51.118Z,64.08
2023-04-25T03:11:23.568Z,63.57
2023-04-25T03:13:53.915Z,64.12
2023-04-25T03:16:25.026Z,63.17
2023-04-25T03:18:55.436Z,62.90
2023-04-25T03:21:25.926Z,62.54
2023-04-25T03:23:56.390Z,61.27
2023-04-25T03:26:26.946Z,61.09
2023-04-25T03:28:57.218Z,60.62
2023-04-25T03:31:27.463Z,60.81
2023-04-25T03:33:58.020Z,60.62
2023-04-25T03:36:28.292Z,60.77
2023-04-25T03:38:58.927Z,60.36
2023-04-25T03:41:31.301Z,59.53
2023-04-25T03:44:07.492Z,59.39
2023-04-25T03:46:38.801Z,59.09
2023-04-25T03:49:09.304Z,58.98
2023-04-25T03:51:59.940Z,59.23
2023-04-25T03:54:31.816Z,59.50
2023-04-25T03:57:28.363Z,59.28
2023-04-25T03:59:58.964Z,59.57
2023-04-25T04:02:31.370Z,59.46
2023-04-25T04:05:02.590Z,59.63
2023-04-25T04:07:33.335Z,59.67
2023-04-25T04:10:06.037Z,59.72
2023-04-25T04:12:40.661Z,59.49
2023-04-25T04:15:11.062Z,59.60
2023-04-25T04:17:42.206Z,59.42
2023-04-25T04:20:13.251Z,59.52
2023-04-25T04:22:44.592Z,59.14
2023-04-25T04:25:17.319Z,59.08
2023-04-25T04:28:23.582Z,58.72
2023-04-25T04:30:58.928Z,59.00
2023-04-25T04:33:29.969Z,58.86
2023-04-25T04:36:04.425Z,58.82
2023-04-25T04:38:35.530Z,58.73
2023-04-25T04:41:07.621Z,58.72
2023-04-25T04:43:52.651Z,58.55
2023-04-25T04:46:34.925Z,58.41
2023-04-25T04:49:17.864Z,58.39
2023-04-25T04:51:50.979Z,58.51
2023-04-25T04:54:44.447Z,58.66
2023-04-25T04:57:21.583Z,58.23
2023-04-25T05:00:08.240Z,58.26
2023-04-25T05:03:10.803Z,58.27
2023-04-25T05:05:59.835Z,58.66
2023-04-25T05:08:50.347Z,58.47
2023-04-25T05:11:40.949Z,58.27
2023-04-25T05:14:31.367Z,57.81
2023-04-25T05:17:36.302Z,58.11
2023-04-25T05:20:26.912Z,57.21
2023-04-25T05:23:17.537Z,57.31
2023-04-25T05:26:06.556Z,57.44
2023-04-25T05:28:55.353Z,56.97
2023-04-25T05:31:54.963Z,56.75
2023-04-25T05:34:25.524Z,57.00
2023-04-25T05:37:02.173Z,56.54
2023-04-25T05:39:33.788Z,56.62
2023-04-25T05:42:26.893Z,56.56
2023-04-25T05:45:21.546Z,56.44
2023-04-25T05:48:09.508Z,55.81
2023-04-25T05:51:05.700Z,56.02
2023-04-25T05:53:54.110Z,56.04
2023-04-25T05:56:25.402Z,55.89
2023-04-25T05:58:56.981Z,55.34
2023-04-25T06:01:27.469Z,54.94
2023-04-25T06:03:58.116Z,54.52
2023-04-25T06:06:31.311Z,54.31
2023-04-25T06:09:03.019Z,54.48
2023-04-25T06:11:35.373Z,54.28
2023-04-25T06:14:07.096Z,54.16
2023-04-25T06:16:41.291Z,53.98
2023-04-25T06:19:11.870Z,53.96
2023-04-25T06:21:42.429Z,53.89
2023-04-25T06:24:13.295Z,53.72
2023-04-25T06:26:44.031Z,53.83
2023-04-25T06:29:14.461Z,53.78
2023-04-25T06:31:44.906Z,53.95
2023-04-25T06:34:15.297Z,53.78
2023-04-25T06:36:45.673Z,54.00
2023-04-25T06:39:18.877Z,53.77
2023-04-25T06:41:49.409Z,53.86
2023-04-25T06:44:43.816Z,54.01
2023-04-25T06:47:15.853Z,53.99
2023-04-25T06:49:47.085Z,53.92
2023-04-25T06:52:18.185Z,53.63
2023-04-25T06:54:49.322Z,53.65
2023-04-25T06:57:45.750Z,53.55
2023-04-25T07:00:35.598Z,53.54
2023-04-25T07:03:06.131Z,53.46
2023-04-25T07:05:36.701Z,53.50
2023-04-25T07:08:07.277Z,53.17
2023-04-25T07:10:38.276Z,53.21
2023-04-25T07:13:09.233Z,53.23
2023-04-25T07:15:40.030Z,53.12
2023-04-25T07:18:10.426Z,52.92
2023-04-25T07:20:40.747Z,53.04
2023-04-25T07:23:10.904Z,53.14
2023-04-25T07:25:41.401Z,53.59
2023-04-25T07:28:12.207Z,54.45
2023-04-25T07:30:42.745Z,55.44
2023-04-25T07:33:13.674Z,55.97
2023-04-25T07:35:44.060Z,56.47
2023-04-25T07:38:17.107Z,57.42
2023-04-25T07:40:47.730Z,57.54
2023-04-25T07:43:20.187Z,57.60
2023-04-25T07:45:58.218Z,58.02
2023-04-25T07:48:31.122Z,57.78
2023-04-25T07:51:01.423Z,57.93
2023-04-25T07:53:33.161Z,57.49
2023-04-25T07:56:09.133Z,58.06
2023-04-25T07:58:42.396Z,57.95
2023-04-25T08:01:15.038Z,57.87
2023-04-25T08:04:11.869Z,58.04
2023-04-25T08:06:57.315Z,57.94
2023-04-25T08:09:31.405Z,58.32
2023-04-25T08:12:01.954Z,58.94
2023-04-25T08:14:39.617Z,59.46
2023-04-25T08:17:11.021Z,59.55
2023-04-25T08:19:44.745Z,60.17
2023-04-25T08:22:24.917Z,59.66
2023-04-25T08:25:02.114Z,59.80
2023-04-25T08:27:32.706Z,59.00
2023-04-25T08:30:03.236Z,58.77
2023-04-25T08:32:34.704Z,59.14
2023-04-25T08:35:21.014Z,58.37
2023-04-25T08:37:53.072Z,57.86
2023-04-25T08:40:32.637Z,55.93
2023-04-25T08:43:15.257Z,54.40
2023-04-25T08:45:46.521Z,54.30
2023-04-25T08:48:39.821Z,54.07
2023-04-25T08:51:12.347Z,54.72
2023-04-25T08:53:46.400Z,54.75
2023-04-25T08:56:31.067Z,54.09
2023-04-25T08:59:01.982Z,54.06
2023-04-25T09:01:33.082Z,53.25
2023-04-25T09:04:04.981Z,52.75
2023-04-25T09:06:38.548Z,53.17
2023-04-25T09:09:11.684Z,53.09
2023-04-25T09:11:42.213Z,53.73
2023-04-25T09:14:19.248Z,54.68
2023-04-25T09:17:11.385Z,56.49
2023-04-25T09:19:44.744Z,57.12
2023-04-25T09:22:26.679Z,58.49
2023-04-25T09:24:57.314Z,58.47
2023-04-25T09:27:31.682Z,58.73
2023-04-25T09:30:19.981Z,58.66
2023-04-25T09:33:11.593Z,58.57
2023-04-25T09:35:47.132Z,58.47
2023-04-25T09:38:25.686Z,58.69
2023-04-25T09:40:56.375Z,58.51
2023-04-25T09:43:36.529Z,58.02
2023-04-25T09:46:11.768Z,58.43
2023-04-25T09:48:53.453Z,58.30
2023-04-25T09:51:34.801Z,58.37
2023-04-25T09:54:06.866Z,58.09
2023-04-25T09:56:51.080Z,58.13
2023-04-25T09:59:26.003Z,58.05
2023-04-25T10:01:59.014Z,57.93
2023-04-25T10:04:38.324Z,57.46
2023-04-25T10:07:14.890Z,57.03
2023-04-25T10:09:51.192Z,56.86
2023-04-25T10:12:21.871Z,56.30
2023-04-25T10:14:52.268Z,56.36
2023-04-25T10:17:24.571Z,55.69
2023-04-25T10:19:55.860Z,55.51
2023-04-25T10:22:38.244Z,55.17
2023-04-25T10:25:10.008Z,55.32
2023-04-25T10:27:40.784Z,55.27
2023-04-25T10:30:18.540Z,55.05
2023-04-25T10:32:50.835Z,54.76
2023-04-25T10:35:32.751Z,54.74
2023-04-25T10:38:04.107Z,54.44
2023-04-25T10:40:35.190Z,54.44
2023-04-25T10:43:34.755Z,54.44
2023-04-25T10:46:05.862Z,54.51
2023-04-25T10:48:35.730Z,54.29
2023-04-25T10:51:19.340Z,54.04
2023-04-25T10:53:51.246Z,54.26
2023-04-25T10:56:24.572Z,54.10
2023-04-25T10:58:55.199Z,54.74
2023-04-25T11:01:31.750Z,55.16
2023-04-25T11:04:02.852Z,54.77
2023-04-25T11:06:45.742Z,54.78
2023-04-25T11:09:16.856Z,54.83
2023-04-25T11:11:47.035Z,55.36
2023-04-25T11:14:17.467Z,55.31
2023-04-25T11:16:47.803Z,55.68
2023-04-25T11:19:18.307Z,56.10
2023-04-25T11:21:48.780Z,56.17
2023-04-25T11:24:20.970Z,56.84
2023-04-25T11:26:51.714Z,56.85
2023-04-25T11:29:21.969Z,57.05
2023-04-25T11:31:52.485Z,57.31
2023-04-25T11:34:23.188Z,57.58
2023-04-25T11:36:55.475Z,57.73
2023-04-25T11:39:27.359Z,57.98
2023-04-25T11:41:59.538Z,58.16
2023-04-25T11:44:32.170Z,58.23
2023-04-25T11:47:03.504Z,58.71
2023-04-25T11:49:36.572Z,58.52
2023-04-25T11:52:10.509Z,58.82
2023-04-25T11:54:41.539Z,58.85
2023-04-25T11:57:11.588Z,59.01
2023-04-25T11:59:41.683Z,59.21
2023-04-25T12:02:11.810Z,58.97
2023-04-25T12:04:45.246Z,59.10
2023-04-25T12:07:16.968Z,59.52
2023-04-25T12:09:47.499Z,59.62
2023-04-25T12:12:17.794Z,59.53
2023-04-25T12:14:54.667Z,59.72
2023-04-25T12:17:26.725Z,59.94
2023-04-25T12:19:57.117Z,59.94
2023-04-25T12:22:28.308Z,60.07
2023-04-25T12:25:00.189Z,60.35
2023-04-25T12:27:30.887Z,59.95
2023-04-25T12:30:01.888Z,60.57
2023-04-25T12:32:32.210Z,60.36
2023-04-25T12:35:03.492Z,60.41
2023-04-25T12:37:37.824Z,60.60
2023-04-25T12:40:10.396Z,60.34
2023-04-25T12:42:41.258Z,60.65
2023-04-25T12:45:15.928Z,60.67
2023-04-25T12:47:47.645Z,60.84
2023-04-25T12:50:21.309Z,60.73
2023-04-25T12:52:52.288Z,61.08
2023-04-25T12:55:22.927Z,60.76
2023-04-25T13:07:49.277Z,61.77
2023-04-25T13:10:19.853Z,61.80
2023-04-25T13:12:51.284Z,61.98
2023-04-25T13:15:21.909Z,62.13
2023-04-25T13:17:52.592Z,62.32
2023-04-25T13:20:26.031Z,62.57
2023-04-25T13:22:56.417Z,62.18
2023-04-25T13:25:27.184Z,62.11
2023-04-25T13:27:57.824Z,61.69
2023-04-25T13:30:28.387Z,61.99
2023-04-25T13:33:00.801Z,61.50
2023-04-25T13:35:31.217Z,60.86
2023-04-25T13:38:01.622Z,60.94
2023-04-25T13:40:32.439Z,60.81
2023-04-25T13:43:03.876Z,60.84
2023-04-25T13:45:35.135Z,60.52
2023-04-25T13:48:06.333Z,60.61
2023-04-25T13:50:36.885Z,60.69
2023-04-25T13:53:07.404Z,60.53
2023-04-25T13:55:42.565Z,60.26
2023-04-25T13:58:13.504Z,59.87
2023-04-25T14:00:46.627Z,59.61
2023-04-25T14:03:17.387Z,59.57
2023-04-25T14:05:47.800Z,59.58
2023-04-25T14:08:18.153Z,59.79
2023-04-25T14:10:49.025Z,59.56
2023-04-25T14:13:19.451Z,59.52
2023-04-25T14:15:49.920Z,59.23
2023-04-25T14:18:20.733Z,59.31
2023-04-25T14:20:51.863Z,59.34
2023-04-25T14:23:22.432Z,59.13
2023-04-25T14:25:53.315Z,59.05
2023-04-25T14:28:23.911Z,58.95
2023-04-25T14:30:54.501Z,59.10
2023-04-25T14:33:27.562Z,59.23
2023-04-25T14:35:58.713Z,59.22
2023-04-25T14:38:29.162Z,58.86
2023-04-25T14:40:59.560Z,59.00
2023-04-25T14:43:30.011Z,59.16
2023-04-25T14:46:00.479Z,58.55
2023-04-25T14:48:30.985Z,58.55
2023-04-25T14:51:01.829Z,58.45
2023-04-25T14:53:32.571Z,58.23
2023-04-25T14:56:03.044Z,57.88
2023-04-25T14:58:33.621Z,58.18
2023-04-25T15:01:04.834Z,57.89
2023-04-25T15:03:35.515Z,58.08
2023-04-25T15:06:06.270Z,58.48
2023-04-25T15:08:37.277Z,58.45
2023-04-25T15:11:08.793Z,58.64
2023-04-25T15:13:39.195Z,58.92
2023-04-25T15:16:10.202Z,59.17
2023-04-25T15:18:40.689Z,59.00
2023-04-25T15:21:12.219Z,59.64
2023-04-25T15:23:43.538Z,60.00
2023-04-25T15:26:15.130Z,60.06
2023-04-25T15:28:46.455Z,60.48
2023-04-25T15:31:18.147Z,60.46
2023-04-25T15:33:50.376Z,60.34
2023-04-25T15:36:22.813Z,60.77
2023-04-25T15:38:54.288Z,59.98
2023-04-25T15:41:25.288Z,58.98
2023-04-25T15:43:57.428Z,58.65
2023-04-25T15:46:28.478Z,58.27
2023-04-25T15:48:59.823Z,58.23
2023-04-25T15:51:30.895Z,58.26
2023-04-25T15:54:02.110Z,58.01
2023-04-25T15:56:33.357Z,58.20
2023-04-25T15:59:03.601Z,58.25
2023-04-25T16:01:34.672Z,58.27
2023-04-25T16:04:05.183Z,58.01
2023-04-25T16:06:35.804Z,58.45
2023-04-25T16:09:07.076Z,58.39
2023-04-25T16:11:37.583Z,58.66
2023-04-25T16:14:07.814Z,58.40
2023-04-25T16:16:38.308Z,58.40
2023-04-25T16:19:08.699Z,58.06
2023-04-25T16:21:39.655Z,58.04
2023-04-25T16:24:10.492Z,58.44
2023-04-25T16:26:40.782Z,58.33
2023-04-25T16:29:11.421Z,58.41
2023-04-25T16:31:42.245Z,58.27
2023-04-25T16:34:12.643Z,58.15
2023-04-25T16:36:43.754Z,58.27
2023-04-25T16:39:14.103Z,58.18
2023-04-25T16:41:44.597Z,58.15
2023-04-25T16:44:15.392Z,58.29
2023-04-25T16:46:46.046Z,58.24
2023-04-25T16:49:16.376Z,58.43
2023-04-25T16:51:46.749Z,58.27
2023-04-25T16:54:16.787Z,58.14
2023-04-25T16:56:46.845Z,58.30
2023-04-25T16:59:16.890Z,58.41
2023-04-25T17:01:47.102Z,58.45
2023-04-25T17:04:17.926Z,58.32
2023-04-25T17:06:48.284Z,58.41
2023-04-25T17:09:18.687Z,58.45
2023-04-25T17:11:49.097Z,58.49
2023-04-25T17:14:19.495Z,58.97
2023-04-25T17:16:49.949Z,59.15
2023-04-25T17:19:20.212Z,58.90
2023-04-25T17:21:50.404Z,59.35
2023-04-25T17:24:20.771Z,59.11
2023-04-25T17:26:51.033Z,58.96
2023-04-25T17:29:21.856Z,58.88
2023-04-25T17:31:53.694Z,59.24
2023-04-25T17:34:24.523Z,59.16
2023-04-25T17:36:54.716Z,59.28
2023-04-25T17:39:24.958Z,59.48
2023-04-25T17:41:55.453Z,59.65
2023-04-25T17:44:25.688Z,59.55
2023-04-25T17:46:56.085Z,59.31
2023-04-25T17:49:26.530Z,59.35
2023-04-25T17:51:56.927Z,59.53
2023-04-25T17:54:27.904Z,59.30
2023-04-25T17:56:58.877Z,58.74
2023-04-25T17:59:30.454Z,58.34
2023-04-25T18:02:02.342Z,57.49
2023-04-25T18:04:32.730Z,57.49
2023-04-25T18:07:03.589Z,57.19
2023-04-25T18:09:34.699Z,57.31
2023-04-25T18:12:06.100Z,57.20
2023-04-25T18:14:38.107Z,57.20
2023-04-25T18:17:09.606Z,57.15
2023-04-25T18:19:39.974Z,57.44
2023-04-25T18:22:10.461Z,57.46
2023-04-25T18:24:40.768Z,57.49
2023-04-25T18:27:10.989Z,58.13
2023-04-25T18:29:41.366Z,58.01
2023-04-25T18:32:11.627Z,58.74
2023-04-25T18:34:46.126Z,59.50
2023-04-25T18:37:16.800Z,60.14
2023-04-25T18:39:47.614Z,60.76
2023-04-25T18:42:18.873Z,61.42
2023-04-25T18:44:48.926Z,62.00
2023-04-25T18:47:19.775Z,64.08
2023-04-25T18:49:50.306Z,63.40
2023-04-25T18:52:21.603Z,63.04
2023-04-25T18:54:52.443Z,64.21
2023-04-25T18:57:23.244Z,64.75
2023-04-25T18:59:53.425Z,64.76
2023-04-25T19:02:25.124Z,65.28
2023-04-25T19:04:55.480Z,65.55
2023-04-25T19:07:26.389Z,65.35
2023-04-25T19:09:57.464Z,65.05
2023-04-25T19:12:28.835Z,65.34
2023-04-25T19:14:59.179Z,65.46
2023-04-25T19:17:30.578Z,65.09
2023-04-25T19:20:01.054Z,65.82
2023-04-25T19:22:31.303Z,65.80
2023-04-25T19:25:09.808Z,65.99
2023-04-25T19:27:41.611Z,65.88
2023-04-25T19:30:13.051Z,66.33
2023-04-25T19:32:43.368Z,66.73
2023-04-25T19:35:14.041Z,66.73
2023-04-25T19:37:48.606Z,67.07
2023-04-25T19:40:20.718Z,67.34
2023-04-25T19:42:51.066Z,67.25
2023-04-25T19:45:21.218Z,67.71
2023-04-25T19:47:51.633Z,67.37
2023-04-25T19:50:22.044Z,66.91
2023-04-25T19:52:52.196Z,67.37
2023-04-25T19:55:22.913Z,66.99
2023-04-25T19:57:53.908Z,67.31
2023-04-25T20:00:24.623Z,67.46
2023-04-25T20:02:54.935Z,67.52
2023-04-25T20:05:26.054Z,67.24
2023-04-25T20:07:56.460Z,67.30
2023-04-25T20:10:27.062Z,67.51
2023-04-25T20:12:57.342Z,67.45
2023-04-25T20:15:27.736Z,67.40
2023-04-25T20:17:58.246Z,66.97
2023-04-25T20:20:28.634Z,67.28
2023-04-25T20:22:59.031Z,66.53
2023-04-25T20:25:29.431Z,67.35
2023-04-25T20:27:59.694Z,66.82
2023-04-25T20:30:29.940Z,66.95
2023-04-25T20:33:00.664Z,66.97
2023-04-25T20:35:30.867Z,67.13
2023-04-25T20:38:01.208Z,67.55
2023-04-25T20:40:31.502Z,66.91
2023-04-25T20:43:01.751Z,67.21
2023-04-25T20:45:34.660Z,67.14
2023-04-25T20:48:05.070Z,67.09
2023-04-25T20:50:37.412Z,67.27
2023-04-25T20:53:08.058Z,67.11
2023-04-25T20:55:38.967Z,66.66
2023-04-25T20:58:09.609Z,66.88
2023-04-25T21:00:41.370Z,66.90
2023-04-25T21:03:12.842Z,67.10
2023-04-25T21:05:43.374Z,67.26
2023-04-25T21:08:13.691Z,67.33
2023-04-25T21:10:44.495Z,67.39
2023-04-25T21:13:15.186Z,67.34
2023-04-25T21:15:45.865Z,67.20
2023-04-25T21:18:16.376Z,67.24
2023-04-25T21:20:46.885Z,67.14
2023-04-25T21:23:18.020Z,66.72
2023-04-25T21:25:49.737Z,67.02
2023-04-25T21:28:20.129Z,66.94
2023-04-25T21:30:50.549Z,67.44
2023-04-25T21:33:21.206Z,66.85
2023-04-25T21:35:51.706Z,66.63
2023-04-25T21:38:22.013Z,67.00
2023-04-25T21:40:52.542Z,67.09
2023-04-25T21:43:22.854Z,67.26
2023-04-25T21:48:27.577Z,67.79
2023-04-25T21:50:58.552Z,67.85
2023-04-25T21:53:31.646Z,67.59
2023-04-25T21:56:01.984Z,68.00
2023-04-25T21:58:32.334Z,67.93
2023-04-25T22:01:02.507Z,67.55
2023-04-25T22:03:34.000Z,68.33
2023-04-25T22:06:06.180Z,68.17
2023-04-25T22:08:36.395Z,67.91
2023-04-25T22:11:09.667Z,68.31
2023-04-25T22:13:40.018Z,68.62
2023-04-25T22:16:14.336Z,68.46
2023-04-25T22:18:44.758Z,68.36
2023-04-25T22:21:15.383Z,68.41
2023-04-25T22:23:45.614Z,68.95
2023-04-25T22:26:15.926Z,69.01
2023-04-25T22:28:46.915Z,69.53
2023-04-25T22:31:17.757Z,69.09
2023-04-25T22:33:49.727Z,69.13
2023-04-25T22:36:22.792Z,69.24
2023-04-25T22:38:54.835Z,68.97
2023-04-25T22:41:26.060Z,69.17
2023-04-25T22:43:56.499Z,69.00
2023-04-25T22:46:27.055Z,69.25
2023-04-25T22:48:58.311Z,69.17
2023-04-25T22:51:28.682Z,68.82
2023-04-25T22:56:04.457Z,69.13
2023-04-25T22:58:35.217Z,69.06
2023-04-25T23:01:06.236Z,69.02
2023-04-25T23:03:36.750Z,69.22
2023-04-25T23:06:08.210Z,69.11
2023-04-25T23:08:39.115Z,68.96
2023-04-25T23:11:10.346Z,69.11
2023-04-25T23:13:40.601Z,69.23
2023-04-25T23:16:11.985Z,69.21
2023-04-25T23:18:43.336Z,69.04
2023-04-25T23:21:14.539Z,69.51
2023-04-25T23:23:44.437Z,69.48
2023-04-25T23:26:14.628Z,69.60
2023-04-25T23:28:45.308Z,69.56
2023-04-25T23:31:15.833Z,69.80
2023-04-25T23:33:46.348Z,69.44
2023-04-25T23:36:26.208Z,69.26
2023-04-25T23:38:58.305Z,69.40
2023-04-25T23:41:28.588Z,69.27
2023-04-25T23:43:58.885Z,69.49
2023-04-25T23:46:30.744Z,69.52
2023-04-25T23:49:01.112Z,69.40
2023-04-25T23:51:31.838Z,69.89
2023-04-25T23:54:05.182Z,69.32
2023-04-25T23:56:35.639Z,69.72
2023-04-25T23:59:06.393Z,70.05
